Time;durP1;ratioP1;P1;durP2;ratioP2;P2;SDS_P1;SDS_P2;PMS_P1;PMS_P2;Temp;Humidity;BMP_temperature;BMP_pressure;BME280_temperature;BME280_humidity;BME280_pressure;Samples;Min_cycle;Max_cycle;Signal;HPM_P1;HPM_P2
2022/12/15 00:40:06;;;;;;;15.13;11.30;;;;;;;;;;4975503;28;20211;-67
2022/12/15 00:42:34;;;;;;;16.77;11.70;;;;;;;;;;4975791;28;20202;-67
2022/12/15 00:45:01;;;;;;;16.47;11.23;;;;;;;;;;4978232;28;20233;-67
2022/12/15 00:47:31;;;;;;;15.77;11.47;;;;;;;;;;4969858;28;20206;-67
2022/12/15 01:20:17;;;;;;;14.20;10.53;;;;;;;;;;4977747;28;20286;-67
2022/12/15 01:22:45;;;;;;;16.20;11.30;;;;;;;;;;4974242;28;20233;-67
2022/12/15 01:25:13;;;;;;;14.87;10.73;;;;;;;;;;4981711;28;20230;-67
2022/12/15 01:27:40;;;;;;;13.87;10.07;;;;;;;;;;4975108;28;20210;-67
2022/12/15 01:30:08;;;;;;;13.70;10.00;;;;;;;;;;4980212;28;20209;-67
2022/12/15 01:32:35;;;;;;;13.77;10.60;;;;;;;;;;4979812;28;20205;-67
2022/12/15 01:35:03;;;;;;;12.77;9.73;;;;;;;;;;4980165;28;20239;-67
2022/12/15 01:37:31;;;;;;;14.53;10.00;;;;;;;;;;4987459;28;20210;-67
2022/12/15 01:42:43;;;;;;;13.30;10.07;;;;;;;;;;4981509;28;20270;-67
2022/12/15 01:45:38;;;;;;;15.67;10.40;;;;;;;;;;4979115;28;20225;-67
2022/12/15 01:48:06;;;;;;;15.03;10.43;;;;;;;;;;4996537;28;20239;-67
2022/12/15 01:50:35;;;;;;;12.93;10.20;;;;;;;;;;4978724;28;20201;-67
2022/12/15 01:53:04;;;;;;;14.10;10.27;;;;;;;;;;4982899;28;20209;-67
2022/12/15 01:55:31;;;;;;;13.83;10.43;;;;;;;;;;4984225;28;20433;-67
2022/12/15 01:58:02;;;;;;;13.20;9.53;;;;;;;;;;4970188;28;20197;-68
2022/12/15 02:00:30;;;;;;;14.00;10.33;;;;;;;;;;4981303;28;20210;-67
2022/12/15 02:02:58;;;;;;;15.87;11.07;;;;;;;;;;4976749;28;20203;-67
2022/12/15 02:05:25;;;;;;;14.53;10.60;;;;;;;;;;4977325;28;20218;-67
2022/12/15 02:07:52;;;;;;;12.67;9.73;;;;;;;;;;4975254;28;20212;-67
2022/12/15 02:10:21;;;;;;;15.27;10.07;;;;;;;;;;4972344;28;20262;-67
2022/12/15 02:12:51;;;;;;;13.80;10.17;;;;;;;;;;4976246;28;20216;-67
2022/12/15 02:15:21;;;;;;;14.70;10.40;;;;;;;;;;4973967;28;20204;-67
2022/12/15 02:17:52;;;;;;;13.17;9.63;;;;;;;;;;4980339;28;20206;-67
2022/12/15 02:20:29;;;;;;;14.27;10.00;;;;;;;;;;4980271;28;20204;-67
2022/12/15 02:23:11;;;;;;;13.30;9.70;;;;;;;;;;4976783;28;20263;-67
2022/12/15 02:25:45;;;;;;;13.13;9.40;;;;;;;;;;4973889;28;20228;-67
2022/12/15 02:28:16;;;;;;;13.27;10.57;;;;;;;;;;4973176;28;20210;-68
2022/12/15 02:31:48;;;;;;;14.30;10.93;;;;;;;;;;4972939;28;20206;-67
2022/12/15 02:33:36;;;;;;;16.03;10.40;;;;;;;;;;4975116;28;20207;-67
2022/12/15 02:36:07;;;;;;;13.43;9.73;;;;;;;;;;4975128;28;20251;-67
2022/12/15 02:38:36;;;;;;;14.60;10.43;;;;;;;;;;4975841;28;20552;-67
2022/12/15 02:41:04;;;;;;;14.77;10.53;;;;;;;;;;4979140;28;20292;-67
2022/12/15 02:43:33;;;;;;;14.93;10.40;;;;;;;;;;4971320;28;20226;-68
2022/12/15 02:46:07;;;;;;;14.43;10.40;;;;;;;;;;4976784;28;20229;-68
2022/12/15 02:48:38;;;;;;;15.90;10.53;;;;;;;;;;4979485;28;20210;-68
2022/12/15 02:51:12;;;;;;;13.77;10.00;;;;;;;;;;4977821;28;20248;-68
2022/12/15 02:53:47;;;;;;;13.23;10.00;;;;;;;;;;4979859;28;20279;-68
2022/12/15 02:56:19;;;;;;;15.10;10.90;;;;;;;;;;4975577;28;20208;-68
2022/12/15 02:58:49;;;;;;;15.40;10.57;;;;;;;;;;4971257;28;20203;-68
2022/12/15 03:01:21;;;;;;;13.70;10.07;;;;;;;;;;4982306;28;20214;-68
2022/12/15 03:03:49;;;;;;;14.17;10.40;;;;;;;;;;4976971;28;20206;-68
2022/12/15 03:06:16;;;;;;;15.83;10.90;;;;;;;;;;4976628;28;20226;-68
2022/12/15 03:08:43;;;;;;;13.50;10.00;;;;;;;;;;4979081;28;20218;-67
2022/12/15 03:11:11;;;;;;;15.97;10.73;;;;;;;;;;4973966;28;20206;-68
2022/12/15 03:13:38;;;;;;;14.97;10.33;;;;;;;;;;4978262;28;20216;-68
2022/12/15 03:16:05;;;;;;;15.23;10.53;;;;;;;;;;4973950;28;20199;-68
2022/12/15 03:18:34;;;;;;;14.03;10.20;;;;;;;;;;4979507;28;20214;-68
2022/12/15 03:21:02;;;;;;;15.13;10.23;;;;;;;;;;4971922;28;20201;-68
2022/12/15 03:23:29;;;;;;;13.97;10.07;;;;;;;;;;4975744;28;20745;-68
2022/12/15 03:25:56;;;;;;;15.07;10.77;;;;;;;;;;4973032;28;20230;-68
2022/12/15 03:28:24;;;;;;;16.17;10.30;;;;;;;;;;4977995;28;20216;-68
2022/12/15 03:30:51;;;;;;;14.03;9.93;;;;;;;;;;4975365;28;20202;-68
2022/12/15 03:33:19;;;;;;;13.63;9.73;;;;;;;;;;4972354;28;20217;-68
2022/12/15 03:35:46;;;;;;;11.47;9.30;;;;;;;;;;4974425;28;20230;-68
2022/12/15 03:38:14;;;;;;;14.10;9.73;;;;;;;;;;4977521;28;20205;-68
2022/12/15 03:40:41;;;;;;;13.97;10.13;;;;;;;;;;4977020;28;20217;-68
2022/12/15 03:43:09;;;;;;;14.97;10.17;;;;;;;;;;4978663;28;20222;-68
2022/12/15 03:45:36;;;;;;;12.73;9.23;;;;;;;;;;4973315;28;20238;-68
2022/12/15 03:48:03;;;;;;;14.83;10.33;;;;;;;;;;4974701;28;20207;-68
2022/12/15 03:50:30;;;;;;;14.07;10.37;;;;;;;;;;4975007;28;20208;-68
2022/12/15 03:52:58;;;;;;;13.40;9.13;;;;;;;;;;4978745;28;20209;-68
2022/12/15 03:55:27;;;;;;;12.67;8.93;;;;;;;;;;4975085;28;20206;-68
2022/12/15 03:57:55;;;;;;;12.00;9.60;;;;;;;;;;4970991;28;20219;-68
2022/12/15 04:00:23;;;;;;;13.20;9.80;;;;;;;;;;4976735;28;20206;-68
2022/12/15 04:02:50;;;;;;;12.90;9.83;;;;;;;;;;4969007;28;20238;-68
2022/12/15 04:05:18;;;;;;;14.53;9.83;;;;;;;;;;4975672;28;20235;-68
2022/12/15 04:07:45;;;;;;;14.13;10.20;;;;;;;;;;4978316;28;20553;-68
2022/12/15 04:10:13;;;;;;;14.20;10.17;;;;;;;;;;4972568;28;20202;-68
2022/12/15 04:12:41;;;;;;;13.53;10.13;;;;;;;;;;4975705;28;20209;-68
2022/12/15 04:15:09;;;;;;;17.17;11.27;;;;;;;;;;4979595;28;20211;-68
2022/12/15 04:17:37;;;;;;;15.47;10.33;;;;;;;;;;4978867;28;20205;-68
2022/12/15 04:20:09;;;;;;;16.37;11.17;;;;;;;;;;4976942;28;20209;-68
2022/12/15 04:22:37;;;;;;;14.60;9.60;;;;;;;;;;4979720;28;20293;-68
2022/12/15 05:33:56;;;;;;;24.73;11.90;;;;;;;;;;4978820;28;20200;-68
2022/12/15 05:36:23;;;;;;;33.43;13.17;;;;;;;;;;4976699;28;20319;-68
2022/12/15 05:38:51;;;;;;;46.93;13.73;;;;;;;;;;4977173;28;20209;-68
2022/12/15 05:41:18;;;;;;;32.40;14.20;;;;;;;;;;4978915;28;20210;-68
2022/12/15 05:43:46;;;;;;;35.47;13.70;;;;;;;;;;4975046;28;20216;-68
2022/12/15 05:46:13;;;;;;;28.80;13.80;;;;;;;;;;4976861;28;20229;-69
2022/12/15 05:48:40;;;;;;;21.50;13.77;;;;;;;;;;4975417;28;20209;-68
2022/12/15 05:51:10;;;;;;;28.83;13.67;;;;;;;;;;4980585;28;20228;-69
2022/12/15 05:53:38;;;;;;;22.80;13.63;;;;;;;;;;4974876;28;20213;-68
2022/12/15 05:56:06;;;;;;;32.80;14.30;;;;;;;;;;4980055;28;20409;-68
2022/12/15 05:58:33;;;;;;;20.77;13.83;;;;;;;;;;4973274;28;20210;-68
2022/12/15 06:01:04;;;;;;;37.37;13.60;;;;;;;;;;4978777;28;20216;-68
2022/12/15 06:03:32;;;;;;;35.40;13.83;;;;;;;;;;4968332;28;20283;-68
2022/12/15 06:05:59;;;;;;;22.83;12.87;;;;;;;;;;4969454;28;20234;-68
2022/12/15 06:08:28;;;;;;;20.70;12.90;;;;;;;;;;4972761;28;20216;-68
2022/12/15 06:10:55;;;;;;;18.87;12.30;;;;;;;;;;4977425;28;20210;-69
2022/12/15 06:13:22;;;;;;;22.40;13.33;;;;;;;;;;4971213;28;20209;-68
2022/12/15 06:15:57;;;;;;;22.30;13.23;;;;;;;;;;4980558;28;20196;-68
2022/12/15 06:18:24;;;;;;;23.13;13.97;;;;;;;;;;4975054;28;20205;-68
2022/12/15 06:20:57;;;;;;;24.27;13.90;;;;;;;;;;4976883;28;20210;-68
2022/12/15 06:23:24;;;;;;;22.23;14.10;;;;;;;;;;4975018;28;20209;-68
2022/12/15 06:25:53;;;;;;;26.13;13.27;;;;;;;;;;4977078;28;20244;-68
2022/12/15 06:28:22;;;;;;;20.93;13.53;;;;;;;;;;4975449;28;20202;-68
2022/12/15 06:30:50;;;;;;;25.70;14.97;;;;;;;;;;4976659;28;20225;-68
2022/12/15 06:33:17;;;;;;;23.53;14.53;;;;;;;;;;4975979;28;20215;-68
2022/12/15 06:35:44;;;;;;;27.10;16.07;;;;;;;;;;4980381;28;20233;-68
2022/12/15 06:38:11;;;;;;;23.93;13.93;;;;;;;;;;4976214;28;20209;-68
2022/12/15 06:40:38;;;;;;;33.63;14.33;;;;;;;;;;4981626;28;20205;-68
2022/12/15 06:43:07;;;;;;;45.13;13.60;;;;;;;;;;4976804;28;20212;-68
2022/12/15 06:45:34;;;;;;;22.53;13.20;;;;;;;;;;4974812;28;20313;-68
2022/12/15 06:48:01;;;;;;;19.20;13.00;;;;;;;;;;4976778;28;20197;-68
2022/12/15 06:50:29;;;;;;;20.53;12.50;;;;;;;;;;4971326;28;20214;-68
2022/12/15 06:52:56;;;;;;;20.50;12.20;;;;;;;;;;4978809;28;20220;-68
2022/12/15 06:55:23;;;;;;;23.10;13.27;;;;;;;;;;4975488;28;20206;-68
2022/12/15 06:57:50;;;;;;;24.70;14.77;;;;;;;;;;4976055;28;20213;-68
2022/12/15 07:00:19;;;;;;;25.53;13.93;;;;;;;;;;4974873;28;20209;-68
2022/12/15 07:02:46;;;;;;;29.13;13.50;;;;;;;;;;4976582;28;20218;-68
2022/12/15 07:05:13;;;;;;;19.30;12.67;;;;;;;;;;4981656;28;20309;-68
2022/12/15 07:07:41;;;;;;;20.27;13.57;;;;;;;;;;4977365;28;20217;-68
2022/12/15 07:10:09;;;;;;;30.93;13.07;;;;;;;;;;4976874;28;20211;-68
2022/12/15 07:12:36;;;;;;;17.63;12.40;;;;;;;;;;4968170;28;20275;-68
2022/12/15 07:15:04;;;;;;;20.67;13.10;;;;;;;;;;4973456;28;20235;-68
2022/12/15 07:17:32;;;;;;;19.53;13.30;;;;;;;;;;4976353;28;20542;-68
2022/12/15 07:19:59;;;;;;;22.77;13.00;;;;;;;;;;4976895;28;20210;-68
2022/12/15 07:22:28;;;;;;;19.67;12.80;;;;;;;;;;4973632;28;20207;-68
2022/12/15 07:24:55;;;;;;;25.93;15.30;;;;;;;;;;4978236;28;20212;-68
2022/12/15 07:27:22;;;;;;;24.30;14.40;;;;;;;;;;4975333;28;20218;-68
2022/12/15 07:29:50;;;;;;;23.30;12.97;;;;;;;;;;4974396;28;20248;-68
2022/12/15 07:32:17;;;;;;;24.57;11.87;;;;;;;;;;4973314;28;20214;-68
2022/12/15 07:34:45;;;;;;;19.73;12.83;;;;;;;;;;4977133;28;20215;-68
2022/12/15 07:37:13;;;;;;;21.43;12.17;;;;;;;;;;4977922;28;20325;-68
2022/12/15 07:39:40;;;;;;;24.10;14.27;;;;;;;;;;4976242;28;20309;-68
2022/12/15 07:42:07;;;;;;;22.00;13.43;;;;;;;;;;4973175;28;20210;-68
2022/12/15 07:44:34;;;;;;;25.30;13.53;;;;;;;;;;4972524;28;20213;-68
2022/12/15 07:47:01;;;;;;;21.50;14.40;;;;;;;;;;4974263;28;20226;-68
2022/12/15 07:49:28;;;;;;;22.33;13.27;;;;;;;;;;4977431;28;20205;-68
2022/12/15 07:51:57;;;;;;;24.17;14.93;;;;;;;;;;4968725;28;20217;-68
2022/12/15 07:54:24;;;;;;;22.07;13.87;;;;;;;;;;4976619;28;20252;-69
2022/12/15 07:56:52;;;;;;;23.30;14.37;;;;;;;;;;4976453;28;20258;-68
2022/12/15 07:59:19;;;;;;;24.73;14.93;;;;;;;;;;4970795;28;20210;-68
2022/12/15 08:01:46;;;;;;;19.83;13.40;;;;;;;;;;4974251;28;20206;-68
2022/12/15 08:04:13;;;;;;;23.03;14.40;;;;;;;;;;4972131;28;20209;-68
2022/12/15 08:06:40;;;;;;;19.10;13.13;;;;;;;;;;4975511;28;20214;-68
2022/12/15 08:09:11;;;;;;;18.60;12.60;;;;;;;;;;4974752;28;20210;-68
2022/12/15 08:11:38;;;;;;;20.07;13.60;;;;;;;;;;4974976;28;20269;-68
2022/12/15 08:14:05;;;;;;;20.27;12.73;;;;;;;;;;4964034;28;20217;-68
2022/12/15 08:16:33;;;;;;;23.97;14.50;;;;;;;;;;4977660;28;20210;-68
2022/12/15 08:19:00;;;;;;;24.20;14.83;;;;;;;;;;4977926;28;20220;-68
2022/12/15 08:21:27;;;;;;;28.23;16.57;;;;;;;;;;4973734;28;20209;-68
2022/12/15 08:23:54;;;;;;;29.53;17.23;;;;;;;;;;4975041;28;20202;-68
2022/12/15 08:26:23;;;;;;;32.43;18.33;;;;;;;;;;4974290;28;20238;-68
2022/12/15 08:28:50;;;;;;;26.97;16.07;;;;;;;;;;4972812;28;20213;-68
2022/12/15 08:31:18;;;;;;;28.10;15.50;;;;;;;;;;4974271;28;20221;-68
2022/12/15 08:33:46;;;;;;;31.67;17.63;;;;;;;;;;4978825;28;20213;-68
2022/12/15 08:36:14;;;;;;;25.60;15.53;;;;;;;;;;4967446;28;20236;-68
2022/12/15 08:38:41;;;;;;;22.37;13.83;;;;;;;;;;4975056;28;20208;-68
2022/12/15 08:41:09;;;;;;;20.93;14.60;;;;;;;;;;4977067;28;20209;-68
2022/12/15 08:43:38;;;;;;;22.30;13.50;;;;;;;;;;4971616;28;20217;-68
2022/12/15 08:46:06;;;;;;;20.53;14.07;;;;;;;;;;4967370;28;20214;-68
2022/12/15 08:48:34;;;;;;;21.27;13.93;;;;;;;;;;4980023;28;20277;-68
2022/12/15 08:51:01;;;;;;;21.57;13.07;;;;;;;;;;4974830;28;20214;-68
2022/12/15 08:53:28;;;;;;;19.93;13.37;;;;;;;;;;4974619;28;20210;-68
2022/12/15 08:55:55;;;;;;;21.40;14.10;;;;;;;;;;4971185;28;20197;-68
2022/12/15 08:58:23;;;;;;;21.67;12.83;;;;;;;;;;4971536;28;20205;-68
2022/12/15 09:00:51;;;;;;;19.23;12.90;;;;;;;;;;4976579;28;20212;-68
2022/12/15 09:03:18;;;;;;;21.27;13.07;;;;;;;;;;4975029;28;20209;-68
2022/12/15 09:05:45;;;;;;;18.77;12.43;;;;;;;;;;4977571;28;20210;-68
2022/12/15 09:08:12;;;;;;;17.10;12.27;;;;;;;;;;4973673;28;20228;-68
2022/12/15 09:10:41;;;;;;;19.90;12.73;;;;;;;;;;4975475;28;20214;-68
2022/12/15 09:13:08;;;;;;;18.67;12.00;;;;;;;;;;4975248;28;20221;-68
2022/12/15 09:15:35;;;;;;;19.00;13.33;;;;;;;;;;4972046;28;20213;-68
2022/12/15 09:18:04;;;;;;;20.20;13.27;;;;;;;;;;4969107;28;20211;-68
2022/12/15 09:20:31;;;;;;;18.03;12.37;;;;;;;;;;4976422;28;20217;-68
2022/12/15 09:22:58;;;;;;;19.47;12.70;;;;;;;;;;4975132;28;20237;-68
2022/12/15 09:25:25;;;;;;;19.23;12.33;;;;;;;;;;4974099;28;20208;-68
2022/12/15 09:27:52;;;;;;;23.33;13.40;;;;;;;;;;4971360;28;20218;-68
2022/12/15 09:30:20;;;;;;;20.57;14.23;;;;;;;;;;4981438;28;20574;-68
2022/12/15 09:32:47;;;;;;;20.07;13.33;;;;;;;;;;4973972;28;20210;-68
2022/12/15 09:35:16;;;;;;;20.07;12.97;;;;;;;;;;4970555;28;20249;-68
2022/12/15 09:37:43;;;;;;;18.47;12.80;;;;;;;;;;4974087;28;20198;-68
2022/12/15 09:40:12;;;;;;;18.23;12.03;;;;;;;;;;4974874;28;20218;-68
2022/12/15 09:42:40;;;;;;;17.10;12.03;;;;;;;;;;4970570;28;20222;-68
2022/12/15 09:45:09;;;;;;;17.97;11.87;;;;;;;;;;4974754;28;20206;-68
2022/12/15 09:47:41;;;;;;;18.47;12.50;;;;;;;;;;4970542;28;20217;-68
2022/12/15 09:50:11;;;;;;;19.67;12.90;;;;;;;;;;4969738;28;20206;-68
2022/12/15 09:52:44;;;;;;;23.60;14.27;;;;;;;;;;4975524;28;20210;-68
2022/12/15 09:55:17;;;;;;;20.10;13.67;;;;;;;;;;4976999;28;20214;-68
2022/12/15 09:57:47;;;;;;;19.67;12.93;;;;;;;;;;4974114;28;20223;-68
2022/12/15 10:00:19;;;;;;;19.93;12.63;;;;;;;;;;4973654;28;20228;-68
2022/12/15 10:03:05;;;;;;;17.70;12.50;;;;;;;;;;4976452;28;20199;-68
2022/12/15 10:05:38;;;;;;;18.13;13.00;;;;;;;;;;4973542;28;20205;-68
2022/12/15 10:08:13;;;;;;;17.53;12.10;;;;;;;;;;4961586;28;20240;-68
2022/12/15 10:10:42;;;;;;;17.67;12.43;;;;;;;;;;4964944;28;20206;-68
2022/12/15 10:13:11;;;;;;;18.70;12.60;;;;;;;;;;4972767;28;20209;-68
2022/12/15 10:15:41;;;;;;;18.80;13.03;;;;;;;;;;4976497;28;20220;-68
2022/12/15 10:18:16;;;;;;;19.43;13.40;;;;;;;;;;4978091;28;20221;-68
2022/12/15 10:20:43;;;;;;;21.73;13.37;;;;;;;;;;4971986;28;20206;-68
2022/12/15 10:23:13;;;;;;;19.70;13.90;;;;;;;;;;4974525;28;20211;-68
2022/12/15 10:25:44;;;;;;;20.97;14.27;;;;;;;;;;4977203;28;20205;-68
2022/12/15 10:28:22;;;;;;;18.80;12.80;;;;;;;;;;4973188;28;20237;-68
2022/12/15 10:30:51;;;;;;;20.13;13.40;;;;;;;;;;4978303;28;20212;-68
2022/12/15 10:33:20;;;;;;;19.27;12.93;;;;;;;;;;4968818;28;20266;-68
2022/12/15 10:35:48;;;;;;;22.77;14.47;;;;;;;;;;4973170;28;20242;-68
2022/12/15 10:38:22;;;;;;;20.63;14.03;;;;;;;;;;4971142;28;20209;-68
2022/12/15 10:40:50;;;;;;;18.30;13.20;;;;;;;;;;4978613;28;20242;-68
2022/12/15 10:43:25;;;;;;;18.00;13.30;;;;;;;;;;4975100;28;20221;-68
2022/12/15 10:46:00;;;;;;;18.77;13.40;;;;;;;;;;4975006;28;20205;-68
2022/12/15 10:48:27;;;;;;;20.63;13.73;;;;;;;;;;4979684;28;20237;-68
2022/12/15 10:51:07;;;;;;;20.20;14.17;;;;;;;;;;4975270;28;20209;-68
2022/12/15 10:53:40;;;;;;;23.43;15.67;;;;;;;;;;4968798;28;20206;-68
2022/12/15 10:56:08;;;;;;;23.73;16.63;;;;;;;;;;4973198;28;20208;-68
2022/12/15 10:58:46;;;;;;;26.30;18.23;;;;;;;;;;4972497;28;20208;-68
2022/12/15 11:01:16;;;;;;;20.47;14.63;;;;;;;;;;4974370;28;20291;-68
2022/12/15 11:03:44;;;;;;;27.30;18.73;;;;;;;;;;4973044;28;20248;-68
2022/12/15 11:06:15;;;;;;;20.07;13.77;;;;;;;;;;4975001;28;20216;-68
2022/12/15 11:08:46;;;;;;;19.47;13.93;;;;;;;;;;4972229;28;20225;-68
2022/12/15 11:14:13;;;;;;;20.70;14.97;;;;;;;;;;4976022;28;20209;-68
2022/12/15 11:16:45;;;;;;;22.27;15.90;;;;;;;;;;4974016;28;20253;-68
2022/12/15 11:19:14;;;;;;;20.93;15.47;;;;;;;;;;4977648;28;20210;-68
2022/12/15 11:21:45;;;;;;;22.20;15.17;;;;;;;;;;4980922;28;20216;-67
2022/12/15 11:24:15;;;;;;;21.17;14.23;;;;;;;;;;4977537;28;20205;-68
2022/12/15 11:26:49;;;;;;;24.33;15.60;;;;;;;;;;4971362;28;20206;-68
2022/12/15 11:29:28;;;;;;;21.53;15.10;;;;;;;;;;4976417;28;20201;-68
2022/12/15 11:31:56;;;;;;;24.10;16.40;;;;;;;;;;4972467;28;20229;-68
2022/12/15 11:34:25;;;;;;;24.13;15.90;;;;;;;;;;4980613;28;20210;-68
2022/12/15 11:36:57;;;;;;;23.03;15.50;;;;;;;;;;4973916;28;20279;-68
2022/12/15 11:39:32;;;;;;;23.80;16.33;;;;;;;;;;4974579;28;20202;-68
2022/12/15 11:42:03;;;;;;;22.80;15.83;;;;;;;;;;4970890;28;20220;-68
2022/12/15 11:44:36;;;;;;;23.87;15.57;;;;;;;;;;4974498;28;20418;-68
2022/12/15 11:47:10;;;;;;;22.20;15.63;;;;;;;;;;4979258;28;20237;-68
2022/12/15 11:49:47;;;;;;;21.67;14.77;;;;;;;;;;4971324;28;20213;-68
2022/12/15 11:52:21;;;;;;;23.83;17.53;;;;;;;;;;4976036;28;20204;-68
2022/12/15 11:54:54;;;;;;;23.93;16.27;;;;;;;;;;4971662;28;20210;-68
2022/12/15 11:57:32;;;;;;;26.63;16.97;;;;;;;;;;4961032;28;20268;-68
2022/12/15 12:00:03;;;;;;;25.37;16.70;;;;;;;;;;4966633;28;20206;-68
2022/12/15 12:02:46;;;;;;;23.13;15.10;;;;;;;;;;4968239;28;20205;-68
2022/12/15 12:05:20;;;;;;;22.83;16.33;;;;;;;;;;4971712;28;20209;-68
2022/12/15 12:07:49;;;;;;;24.50;16.20;;;;;;;;;;4970077;28;20233;-68
2022/12/15 12:10:24;;;;;;;24.70;15.80;;;;;;;;;;4970610;28;20210;-68
2022/12/15 12:12:54;;;;;;;23.50;16.10;;;;;;;;;;4968604;28;20212;-68
2022/12/15 12:15:27;;;;;;;21.93;14.40;;;;;;;;;;4972224;28;20202;-68
2022/12/15 12:17:59;;;;;;;23.07;15.13;;;;;;;;;;4972282;28;20213;-67
2022/12/15 12:20:28;;;;;;;23.93;16.10;;;;;;;;;;4972429;28;20213;-68
2022/12/15 12:23:01;;;;;;;21.03;14.50;;;;;;;;;;4965323;28;20206;-68
2022/12/15 12:25:31;;;;;;;26.33;15.50;;;;;;;;;;4975053;28;20240;-68
2022/12/15 12:28:01;;;;;;;20.77;15.03;;;;;;;;;;4971135;28;20230;-68
2022/12/15 12:30:30;;;;;;;21.27;14.63;;;;;;;;;;4973261;28;20205;-68
2022/12/15 12:33:00;;;;;;;21.40;14.60;;;;;;;;;;4970806;28;20214;-67
2022/12/15 12:35:31;;;;;;;22.57;14.60;;;;;;;;;;4970667;28;20230;-68
2022/12/15 12:38:00;;;;;;;21.10;14.23;;;;;;;;;;4970448;28;20218;-67
2022/12/15 12:40:30;;;;;;;20.33;14.80;;;;;;;;;;4966608;28;20202;-68
2022/12/15 12:42:59;;;;;;;20.17;13.63;;;;;;;;;;4968636;28;20216;-68
2022/12/15 12:45:29;;;;;;;21.47;14.30;;;;;;;;;;4975027;28;20274;-68
2022/12/15 12:47:58;;;;;;;19.17;13.57;;;;;;;;;;4966668;28;20232;-68
2022/12/15 12:50:26;;;;;;;22.60;14.53;;;;;;;;;;4966922;28;20193;-67
2022/12/15 12:52:55;;;;;;;19.97;13.97;;;;;;;;;;4966640;28;20221;-68
2022/12/15 12:55:26;;;;;;;22.47;14.80;;;;;;;;;;4971422;28;20210;-68
2022/12/15 12:57:53;;;;;;;21.13;14.43;;;;;;;;;;4965741;28;20210;-67
2022/12/15 13:00:24;;;;;;;20.30;14.40;;;;;;;;;;4972061;28;20216;-68
2022/12/15 13:03:16;;;;;;;25.53;15.73;;;;;;;;;;4972106;28;20206;-68
2022/12/15 13:05:44;;;;;;;21.23;14.37;;;;;;;;;;4965027;28;20227;-67
2022/12/15 13:08:45;;;;;;;23.67;15.50;;;;;;;;;;4966936;28;20264;-67
2022/12/15 13:11:32;;;;;;;22.60;14.97;;;;;;;;;;4969800;28;20213;-67
2022/12/15 13:13:59;;;;;;;24.27;14.70;;;;;;;;;;4967879;28;20213;-67
2022/12/15 13:16:29;;;;;;;25.37;15.60;;;;;;;;;;4968541;28;20274;-68
2022/12/15 13:18:57;;;;;;;23.27;16.10;;;;;;;;;;4969454;28;20206;-68
2022/12/15 13:21:43;;;;;;;24.27;15.67;;;;;;;;;;4974781;28;20213;-67
2022/12/15 13:24:19;;;;;;;22.73;15.40;;;;;;;;;;4973719;28;20206;-67
2022/12/15 13:26:46;;;;;;;23.23;14.30;;;;;;;;;;4970789;28;20259;-67
2022/12/15 13:29:15;;;;;;;22.43;14.50;;;;;;;;;;4967946;28;20240;-67
2022/12/15 13:31:47;;;;;;;21.60;14.57;;;;;;;;;;4972687;28;20384;-68
2022/12/15 13:34:16;;;;;;;25.00;15.27;;;;;;;;;;4969918;28;20217;-68
2022/12/15 13:36:44;;;;;;;21.43;14.33;;;;;;;;;;4972834;28;20246;-68
2022/12/15 13:39:26;;;;;;;23.87;15.73;;;;;;;;;;4974322;28;20205;-68
2022/12/15 13:42:08;;;;;;;28.30;18.83;;;;;;;;;;4969879;28;20205;-67
2022/12/15 13:44:38;;;;;;;26.33;17.40;;;;;;;;;;4971904;28;20213;-67
2022/12/15 13:47:11;;;;;;;24.23;16.73;;;;;;;;;;5042367;22;20227;-83
2022/12/15 13:49:42;;;;;;;25.70;17.93;;;;;;;;;;5072722;28;20202;-83
2022/12/15 13:52:12;;;;;;;20.13;14.30;;;;;;;;;;5071403;28;20211;-83
2022/12/15 13:54:42;;;;;;;23.27;15.30;;;;;;;;;;5073813;28;20202;-83
2022/12/15 13:57:10;;;;;;;22.40;15.60;;;;;;;;;;5073093;28;20267;-83
2022/12/15 13:59:42;;;;;;;20.90;14.97;;;;;;;;;;5068626;28;20202;-83
2022/12/15 14:02:24;;;;;;;28.17;19.13;;;;;;;;;;5071956;28;20205;-83
2022/12/15 14:05:05;;;;;;;22.60;15.80;;;;;;;;;;5074027;28;20233;-83
2022/12/15 14:07:34;;;;;;;24.27;16.17;;;;;;;;;;5072890;28;20228;-83
2022/12/15 14:10:01;;;;;;;24.83;17.53;;;;;;;;;;5069506;28;20195;-83
2022/12/15 14:12:29;;;;;;;22.97;16.57;;;;;;;;;;5072124;28;20194;-83
2022/12/15 14:14:57;;;;;;;23.47;16.17;;;;;;;;;;5072562;28;20203;-83
2022/12/15 14:17:24;;;;;;;25.53;16.17;;;;;;;;;;5070846;28;20261;-83
2022/12/15 14:19:51;;;;;;;23.47;16.03;;;;;;;;;;5073021;28;20218;-83
2022/12/15 14:22:22;;;;;;;19.93;14.60;;;;;;;;;;5072002;28;20199;-82
2022/12/15 14:24:50;;;;;;;20.37;14.43;;;;;;;;;;5073926;28;20194;-82
2022/12/15 14:27:25;;;;;;;25.83;17.80;;;;;;;;;;5072021;28;20214;-83
2022/12/15 14:30:08;;;;;;;35.63;26.13;;;;;;;;;;5071223;28;20219;-83
2022/12/15 14:32:35;;;;;;;21.60;15.20;;;;;;;;;;5069685;28;20202;-82
2022/12/15 14:35:02;;;;;;;20.20;14.40;;;;;;;;;;5068936;28;20210;-83
2022/12/15 14:37:31;;;;;;;19.30;13.80;;;;;;;;;;5071118;28;20226;-82
2022/12/15 14:39:59;;;;;;;21.13;13.70;;;;;;;;;;5069208;28;20191;-82
2022/12/15 14:42:28;;;;;;;18.83;13.80;;;;;;;;;;5071255;28;20206;-82
2022/12/15 14:44:57;;;;;;;25.03;15.20;;;;;;;;;;5072964;28;20252;-83
2022/12/15 14:47:26;;;;;;;21.27;14.37;;;;;;;;;;5072792;28;20237;-83
2022/12/15 14:49:54;;;;;;;20.57;14.43;;;;;;;;;;5072934;28;20222;-83
2022/12/15 14:52:26;;;;;;;19.57;14.13;;;;;;;;;;5070800;28;20210;-83
2022/12/15 14:54:56;;;;;;;21.60;14.17;;;;;;;;;;5068815;28;20207;-84
2022/12/15 14:57:24;;;;;;;25.37;15.40;;;;;;;;;;5072480;28;20207;-83
2022/12/15 14:59:52;;;;;;;24.20;15.27;;;;;;;;;;5070612;28;20206;-82
2022/12/15 15:02:21;;;;;;;23.03;14.53;;;;;;;;;;5070846;28;20191;-83
2022/12/15 15:04:56;;;;;;;23.37;14.10;;;;;;;;;;5071762;28;20202;-83
2022/12/15 15:07:25;;;;;;;20.50;13.33;;;;;;;;;;5073433;28;20198;-83
2022/12/15 15:09:53;;;;;;;20.00;12.53;;;;;;;;;;5071214;28;20236;-82
2022/12/15 15:12:22;;;;;;;19.17;12.73;;;;;;;;;;5072469;28;20224;-82
2022/12/15 15:14:52;;;;;;;17.37;12.43;;;;;;;;;;5066205;28;20202;-83
2022/12/15 15:17:24;;;;;;;16.57;11.33;;;;;;;;;;5073633;28;20207;-85
2022/12/15 15:19:54;;;;;;;16.87;11.17;;;;;;;;;;5072870;28;20207;-83
2022/12/15 15:22:42;;;;;;;16.73;10.83;;;;;;;;;;5066919;28;20191;-82
2022/12/15 15:25:29;;;;;;;16.90;10.63;;;;;;;;;;5066451;28;20221;-82
2022/12/15 15:28:04;;;;;;;17.33;11.03;;;;;;;;;;5072964;28;20194;-82
2022/12/15 15:30:41;;;;;;;15.83;10.40;;;;;;;;;;5071534;28;20205;-83
2022/12/15 15:33:09;;;;;;;16.60;11.47;;;;;;;;;;5070671;28;20198;-83
2022/12/15 15:35:36;;;;;;;17.87;11.47;;;;;;;;;;5066056;28;20272;-83
2022/12/15 15:38:05;;;;;;;15.17;10.10;;;;;;;;;;5073058;28;20266;-82
2022/12/15 15:40:32;;;;;;;31.83;19.67;;;;;;;;;;5072014;28;20244;-83
2022/12/15 15:43:00;;;;;;;31.00;19.40;;;;;;;;;;5072645;28;20220;-82
2022/12/15 15:45:29;;;;;;;24.63;15.80;;;;;;;;;;5072770;28;20203;-83
2022/12/15 15:47:57;;;;;;;19.67;12.57;;;;;;;;;;5070443;28;20230;-83
2022/12/15 15:50:28;;;;;;;25.70;17.67;;;;;;;;;;5072509;28;20198;-83
2022/12/15 15:52:56;;;;;;;27.07;17.03;;;;;;;;;;5073146;28;20199;-83
2022/12/15 15:55:25;;;;;;;26.57;15.97;;;;;;;;;;5064010;28;20198;-83
2022/12/15 15:57:53;;;;;;;72.33;33.80;;;;;;;;;;5071042;28;20285;-83
2022/12/15 16:00:21;;;;;;;103.90;43.33;;;;;;;;;;5072447;28;20274;-82
2022/12/15 16:02:50;;;;;;;97.90;43.60;;;;;;;;;;5071776;28;20206;-83
2022/12/15 16:05:17;;;;;;;70.07;32.40;;;;;;;;;;5070835;28;20202;-82
2022/12/15 16:07:45;;;;;;;61.00;27.43;;;;;;;;;;5070149;28;20195;-84
2022/12/15 16:10:13;;;;;;;36.57;18.83;;;;;;;;;;5065975;28;20221;-82
2022/12/15 16:12:42;;;;;;;31.57;16.97;;;;;;;;;;5067405;28;20202;-83
2022/12/15 16:15:14;;;;;;;27.13;16.90;;;;;;;;;;5071832;28;20198;-83
2022/12/15 16:17:41;;;;;;;26.17;15.40;;;;;;;;;;5069553;28;20240;-84
2022/12/15 16:20:11;;;;;;;19.93;12.37;;;;;;;;;;5071111;28;20213;-84
2022/12/15 16:22:38;;;;;;;16.40;10.70;;;;;;;;;;5072051;28;20199;-83
2022/12/15 16:25:06;;;;;;;14.77;9.53;;;;;;;;;;5071772;28;20198;-83
2022/12/15 16:27:33;;;;;;;25.73;16.57;;;;;;;;;;5067893;28;20203;-83
2022/12/15 16:30:00;;;;;;;31.77;21.87;;;;;;;;;;5071150;28;20202;-83
2022/12/15 16:32:27;;;;;;;23.83;15.33;;;;;;;;;;5071994;28;20206;-83
2022/12/15 16:34:55;;;;;;;17.60;12.27;;;;;;;;;;5070981;28;20197;-84
2022/12/15 16:37:27;;;;;;;16.10;11.40;;;;;;;;;;5071127;28;20210;-83
2022/12/15 16:39:54;;;;;;;17.30;10.83;;;;;;;;;;5070886;28;20199;-83
2022/12/15 16:42:21;;;;;;;17.60;11.90;;;;;;;;;;5071844;28;20233;-83
2022/12/15 16:44:48;;;;;;;16.67;11.33;;;;;;;;;;5071515;28;20187;-82
2022/12/15 16:47:15;;;;;;;18.90;12.53;;;;;;;;;;5072090;28;20226;-83
2022/12/15 16:49:42;;;;;;;24.43;14.70;;;;;;;;;;5070778;28;20222;-83
2022/12/15 16:52:17;;;;;;;23.13;14.93;;;;;;;;;;5068660;28;20198;-83
2022/12/15 16:54:47;;;;;;;22.53;14.13;;;;;;;;;;5065159;28;20205;-84
2022/12/15 16:57:15;;;;;;;19.67;12.60;;;;;;;;;;5074503;28;20202;-83